Time;durP1;ratioP1;P1;durP2;ratioP2;P2;SDS_P1;SDS_P2;PMS_P1;PMS_P2;Temp;Humidity;BMP_temperature;BMP_pressure;BME280_temperature;BME280_humidity;BME280_pressure;Samples;Min_cycle;Max_cycle;Signal;HPM_P1;HPM_P2
2022/09/09 00:01:47;;;;;;;5.43;2.60;;;19.40;99.90;;;;;;5102499;28;20062;-88
2022/09/09 00:04:23;;;;;;;7.20;3.40;;;19.30;99.90;;;;;;5111129;28;20077;-87
2022/09/09 00:07:03;;;;;;;;;;;19.30;99.90;;;;;;5111874;28;20024;-88
2022/09/09 00:09:33;;;;;;;6.90;5.60;;;19.30;99.90;;;;;;5098589;28;19911;-90
2022/09/09 00:12:10;;;;;;;11.85;5.57;;;19.30;99.90;;;;;;5090282;28;20031;-90
2022/09/09 00:14:58;;;;;;;10.55;6.13;;;19.30;99.90;;;;;;5090412;28;20122;-86
2022/09/09 00:17:33;;;;;;;9.88;6.07;;;19.30;99.90;;;;;;5091434;28;20392;-89
2022/09/09 00:20:19;;;;;;;8.65;5.57;;;19.30;99.90;;;;;;5090993;28;20027;-89
2022/09/09 00:23:19;;;;;;;7.55;5.70;;;19.30;99.90;;;;;;5091168;28;20024;-90
2022/09/09 00:26:18;;;;;;;9.52;6.15;;;19.20;99.90;;;;;;5105651;28;20058;-89
2022/09/09 00:28:59;;;;;;;8.32;5.57;;;19.20;99.90;;;;;;5107009;28;20098;-89
2022/09/09 00:31:29;;;;;;;10.65;5.85;;;19.20;99.90;;;;;;5111046;28;20024;-89
2022/09/09 00:34:00;;;;;;;9.98;6.35;;;19.20;99.90;;;;;;5110744;28;20040;-88
2022/09/09 00:36:28;;;;;;;8.52;6.03;;;19.20;99.90;;;;;;5112202;28;20102;-88
2022/09/09 00:39:01;;;;;;;15.23;6.65;;;19.30;99.90;;;;;;5117828;28;20051;-88
2022/09/09 00:41:32;;;;;;;9.57;6.65;;;19.30;99.90;;;;;;5115236;28;20050;-87
2022/09/09 00:44:24;;;;;;;11.23;6.85;;;19.30;99.90;;;;;;5112779;28;20046;-87
2022/09/09 00:46:56;;;;;;;9.98;6.68;;;19.20;99.90;;;;;;5110272;28;20381;-86
2022/09/09 00:49:44;;;;;;;13.63;7.70;;;19.20;99.90;;;;;;5090238;28;20024;-87
2022/09/09 00:52:30;;;;;;;10.88;6.82;;;19.20;99.90;;;;;;5091171;28;20067;-87
2022/09/09 00:55:04;;;;;;;9.13;6.18;;;19.10;99.90;;;;;;5090343;28;20120;-87
2022/09/09 00:57:33;;;;;;;11.23;5.65;;;19.00;99.90;;;;;;5103288;28;20384;-87
2022/09/09 01:00:22;;;;;;;11.43;5.97;;;19.00;99.90;;;;;;5109618;28;20023;-87
2022/09/09 01:02:57;;;;;;;9.32;6.30;;;19.00;99.90;;;;;;5110208;28;20028;-87
2022/09/09 01:05:32;;;;;;;12.30;6.47;;;18.90;99.90;;;;;;5097371;28;20020;-87
2022/09/09 01:08:00;;;;;;;19.58;7.95;;;18.90;99.90;;;;;;5090244;28;20024;-87
2022/09/09 01:10:53;;;;;;;9.90;6.18;;;18.90;99.90;;;;;;5090388;28;20035;-87
2022/09/09 01:13:26;;;;;;;8.68;6.30;;;18.90;99.90;;;;;;5089399;28;20423;-86
2022/09/09 01:15:54;;;;;;;6.68;5.60;;;18.90;99.90;;;;;;5090172;28;20020;-86
2022/09/09 01:18:28;;;;;;;8.35;6.35;;;18.80;99.90;;;;;;5090224;28;20109;-88
2022/09/09 01:21:00;;;;;;;6.80;5.80;;;18.80;99.90;;;;;;5097888;28;20039;-87
2022/09/09 01:23:47;;;;;;;9.43;6.70;;;18.80;99.90;;;;;;5110171;28;20034;-88
2022/09/09 01:26:21;;;;;;;;;;;18.70;99.90;;;;;;5110599;28;20022;-87
2022/09/09 01:28:49;;;;;;;11.93;6.40;;;18.80;99.90;;;;;;5109599;28;19908;-87
2022/09/09 01:31:32;;;;;;;9.68;5.88;;;18.80;99.90;;;;;;5110235;28;20144;-87
2022/09/09 01:33:58;;;;;;;7.95;7.15;;;18.80;99.90;;;;;;5110005;28;20027;-89
2022/09/09 01:36:38;;;;;;;9.80;8.80;;;18.80;99.90;;;;;;5110036;28;20127;-89
2022/09/09 01:39:04;;;;;;;14.65;8.05;;;18.80;99.90;;;;;;5111393;28;20465;-88
2022/09/09 01:41:30;;;;;;;10.35;7.60;;;18.80;99.90;;;;;;5115162;28;20063;-88
2022/09/09 01:43:57;;;;;;;8.40;7.00;;;18.80;99.90;;;;;;5113737;28;20028;-88
2022/09/09 01:46:23;;;;;;;8.60;6.68;;;18.70;99.90;;;;;;5094625;28;20062;-87
2022/09/09 01:48:52;;;;;;;9.50;8.10;;;18.70;99.90;;;;;;5094464;28;20576;-88
2022/09/09 01:51:18;;;;;;;10.50;9.40;;;18.70;99.90;;;;;;5094365;28;20559;-88
2022/09/09 01:53:44;;;;;;;10.77;7.95;;;18.70;99.90;;;;;;5092818;28;20147;-87
2022/09/09 01:56:28;;;;;;;17.08;7.55;;;18.70;99.90;;;;;;5092991;28;20031;-88
2022/09/09 01:59:18;;;;;;;10.25;8.00;;;18.70;99.90;;;;;;5093269;28;20043;-85
2022/09/09 02:01:57;;;;;;;12.15;7.38;;;18.70;99.90;;;;;;5094026;28;20043;-86
2022/09/09 02:04:32;;;;;;;10.60;7.35;;;18.70;99.90;;;;;;5093259;28;20028;-86
2022/09/09 02:06:59;;;;;;;10.35;7.57;;;18.70;99.90;;;;;;5094322;28;20020;-87
2022/09/09 02:09:26;;;;;;;8.52;7.00;;;18.70;99.90;;;;;;5094067;28;20404;-86
2022/09/09 02:12:13;;;;;;;8.73;6.28;;;18.70;99.90;;;;;;5093801;28;20043;-86
2022/09/09 02:14:55;;;;;;;9.82;6.55;;;18.70;99.90;;;;;;5092641;28;20047;-85
2022/09/09 02:17:28;;;;;;;12.38;6.43;;;18.60;99.90;;;;;;5092751;28;20065;-88
2022/09/09 02:20:02;;;;;;;8.98;6.32;;;18.50;99.90;;;;;;5093213;28;20020;-87
2022/09/09 02:22:29;;;;;;;6.95;5.95;;;18.50;99.90;;;;;;5092590;28;20119;-87
2022/09/09 02:24:58;;;;;;;6.60;4.35;;;18.40;99.90;;;;;;5092660;28;20135;-86
2022/09/09 02:27:25;;;;;;;11.48;4.20;;;18.50;99.90;;;;;;5092692;28;20032;-88
2022/09/09 02:29:52;;;;;;;7.32;4.60;;;18.40;99.90;;;;;;5109524;28;20122;-88
2022/09/09 02:32:22;;;;;;;5.05;4.03;;;18.40;99.90;;;;;;5112997;28;20118;-88
2022/09/09 02:34:56;;;;;;;6.50;4.10;;;18.30;99.90;;;;;;5112385;28;20023;-89
2022/09/09 02:37:28;;;;;;;6.13;3.85;;;18.20;99.90;;;;;;5112460;28;20576;-89
2022/09/09 02:39:54;;;;;;;6.18;2.97;;;18.20;99.90;;;;;;5112692;28;20023;-88
2022/09/09 02:42:20;;;;;;;5.07;2.78;;;18.10;99.90;;;;;;5094779;28;20028;-84
2022/09/09 02:44:46;;;;;;;4.45;2.88;;;18.10;99.90;;;;;;5092949;28;20499;-86
2022/09/09 02:47:34;;;;;;;5.15;2.65;;;18.10;99.90;;;;;;5092416;28;20061;-86
2022/09/09 02:50:02;;;;;;;5.43;2.53;;;18.00;99.90;;;;;;5091667;28;20036;-86
2022/09/09 02:52:54;;;;;;;4.53;2.85;;;18.00;99.90;;;;;;5092589;28;20052;-87
2022/09/09 02:55:43;;;;;;;8.55;3.00;;;18.10;99.90;;;;;;5110160;28;20494;-88
2022/09/09 02:58:13;;;;;;;6.00;3.33;;;18.10;99.90;;;;;;5112388;28;20035;-89
2022/09/09 03:00:39;;;;;;;4.68;2.55;;;18.00;99.90;;;;;;5113278;28;20020;-88
2022/09/09 03:03:07;;;;;;;12.85;3.47;;;17.90;99.90;;;;;;5093030;28;20085;-88
2022/09/09 03:05:33;;;;;;;8.35;3.08;;;17.90;99.90;;;;;;5092112;28;20110;-89
2022/09/09 03:07:59;;;;;;;8.10;2.80;;;17.80;99.90;;;;;;5091917;28;20099;-88
2022/09/09 03:10:24;;;;;;;9.63;3.25;;;17.80;99.90;;;;;;5109037;28;20026;-89
2022/09/09 03:12:50;;;;;;;5.00;3.22;;;17.80;99.90;;;;;;5113622;28;20092;-88
2022/09/09 03:15:16;;;;;;;5.85;3.00;;;17.70;99.90;;;;;;5111985;28;20505;-88
2022/09/09 03:17:42;;;;;;;4.63;2.67;;;17.70;99.90;;;;;;5102317;28;20036;-88
2022/09/09 03:20:08;;;;;;;5.72;2.88;;;17.70;99.90;;;;;;5091507;28;20020;-87
2022/09/09 03:22:34;;;;;;;4.22;3.05;;;17.70;99.90;;;;;;5108488;28;20547;-87
2022/09/09 03:25:02;;;;;;;5.22;3.70;;;17.70;99.90;;;;;;5112261;28;20055;-88
2022/09/09 03:27:28;;;;;;;5.20;3.97;;;17.70;99.90;;;;;;5109948;28;20050;-88
2022/09/09 03:29:54;;;;;;;5.43;3.42;;;17.60;99.90;;;;;;5096120;28;20062;-88
2022/09/09 03:32:22;;;;;;;12.32;4.07;;;17.60;99.90;;;;;;5090809;28;20063;-88
2022/09/09 03:34:49;;;;;;;8.65;3.92;;;17.60;99.90;;;;;;5093099;28;20031;-86
2022/09/09 03:37:17;;;;;;;4.88;3.10;;;17.60;99.90;;;;;;5090940;28;20042;-87
2022/09/09 03:39:43;;;;;;;7.90;4.22;;;17.50;99.90;;;;;;5091206;28;20017;-86
2022/09/09 03:42:08;;;;;;;4.22;3.55;;;17.50;99.90;;;;;;5090934;28;20039;-86
2022/09/09 03:44:34;;;;;;;4.93;3.30;;;17.50;99.90;;;;;;5090446;28;20566;-86
2022/09/09 03:47:00;;;;;;;3.25;2.83;;;17.50;99.90;;;;;;5091178;28;20032;-85
2022/09/09 03:49:28;;;;;;;4.80;3.42;;;17.50;99.90;;;;;;5090744;28;20020;-86
2022/09/09 03:51:56;;;;;;;5.30;3.40;;;17.50;99.90;;;;;;5090996;28;20026;-86
2022/09/09 03:54:22;;;;;;;10.70;4.32;;;17.40;99.90;;;;;;5107538;28;20035;-86
2022/09/09 03:56:48;;;;;;;6.32;4.25;;;17.40;99.90;;;;;;5110612;28;20041;-87
2022/09/09 03:59:14;;;;;;;6.28;4.30;;;17.40;99.90;;;;;;5110841;28;20031;-87
2022/09/09 04:01:39;;;;;;;11.25;4.28;;;17.30;99.90;;;;;;5112174;28;20020;-85
2022/09/09 04:04:05;;;;;;;5.32;4.13;;;17.30;99.90;;;;;;5110751;28;20023;-86
2022/09/09 04:06:31;;;;;;;9.20;4.00;;;17.30;99.90;;;;;;5111158;28;20496;-86
2022/09/09 04:08:56;;;;;;;5.82;4.20;;;17.30;99.90;;;;;;5106717;28;20024;-86
2022/09/09 04:11:22;;;;;;;7.35;4.05;;;17.30;99.90;;;;;;5091078;28;20097;-85
2022/09/09 04:13:49;;;;;;;8.77;3.85;;;17.30;99.90;;;;;;5090142;28;20044;-85
2022/09/09 04:16:14;;;;;;;7.05;3.55;;;17.20;99.90;;;;;;5090616;28;20016;-87
2022/09/09 04:18:40;;;;;;;5.55;4.10;;;17.30;99.90;;;;;;5090213;28;20031;-86
2022/09/09 04:21:07;;;;;;;6.10;3.20;;;17.30;99.90;;;;;;5090274;28;20017;-86
2022/09/09 04:23:34;;;;;;;7.10;2.95;;;17.30;99.90;;;;;;5089794;28;20052;-86
2022/09/09 04:26:00;;;;;;;6.20;3.65;;;17.30;99.90;;;;;;5091543;28;20698;-86
2022/09/09 04:28:29;;;;;;;4.70;3.35;;;17.30;99.90;;;;;;5109874;28;20080;-85
2022/09/09 04:30:56;;;;;;;9.55;5.03;;;17.30;99.90;;;;;;5090009;28;20110;-86
2022/09/09 04:33:26;;;;;;;6.10;4.70;;;17.30;99.90;;;;;;5090088;28;20177;-85
2022/09/09 04:35:53;;;;;;;9.15;4.60;;;17.40;99.90;;;;;;5104228;28;20050;-87
2022/09/09 04:38:19;;;;;;;11.07;4.80;;;17.40;99.90;;;;;;5095468;28;20073;-87
2022/09/09 04:40:51;;;;;;;7.18;4.32;;;17.40;99.90;;;;;;5090582;28;20024;-87
2022/09/09 04:43:16;;;;;;;11.43;4.03;;;17.40;99.90;;;;;;5090340;28;20066;-88
2022/09/09 04:45:42;;;;;;;10.88;5.13;;;17.40;99.90;;;;;;5101708;28;20066;-87
2022/09/09 04:48:09;;;;;;;19.08;4.43;;;17.40;99.90;;;;;;5110672;28;20023;-88
2022/09/09 04:50:35;;;;;;;12.90;4.03;;;17.40;99.90;;;;;;5110547;28;20554;-88
2022/09/09 04:53:04;;;;;;;7.00;4.05;;;17.50;99.90;;;;;;5108442;28;20127;-86
2022/09/09 04:55:31;;;;;;;8.25;4.25;;;17.50;99.90;;;;;;5097717;28;20019;-84
2022/09/09 04:57:57;;;;;;;17.40;6.65;;;17.50;99.90;;;;;;5104891;28;20059;-85
2022/09/09 05:00:24;;;;;;;15.90;8.65;;;17.50;99.90;;;;;;5109550;28;20024;-86
2022/09/09 05:02:50;;;;;;;14.77;8.63;;;17.60;99.90;;;;;;5107438;28;20034;-87
2022/09/09 05:05:16;;;;;;;10.95;7.85;;;17.70;99.90;;;;;;5110493;28;20030;-90
2022/09/09 05:07:43;;;;;;;10.80;6.30;;;17.70;99.90;;;;;;5110340;28;20502;-90
2022/09/09 05:10:10;;;;;;;5.20;4.35;;;17.90;99.90;;;;;;5107104;28;20030;-90
2022/09/09 05:12:36;;;;;;;6.53;4.10;;;18.00;99.90;;;;;;5091190;28;20028;-86
2022/09/09 05:15:01;;;;;;;6.93;4.07;;;18.00;99.90;;;;;;5094676;28;20047;-86
2022/09/09 05:17:27;;;;;;;6.78;4.28;;;18.10;99.90;;;;;;5093409;28;20073;-85
2022/09/09 05:19:53;;;;;;;9.93;3.95;;;18.10;99.90;;;;;;5094898;28;20028;-86
2022/09/09 05:22:23;;;;;;;6.60;4.50;;;18.10;99.90;;;;;;5104192;28;20274;-86
2022/09/09 05:24:50;;;;;;;8.25;3.80;;;18.20;99.90;;;;;;5107548;28;20031;-86
2022/09/09 05:27:19;;;;;;;6.85;4.78;;;18.30;99.90;;;;;;5114152;28;20039;-86
2022/09/09 05:29:45;;;;;;;9.82;3.65;;;18.40;99.90;;;;;;5102089;28;20480;-86
2022/09/09 05:32:11;;;;;;;8.65;3.63;;;18.40;99.90;;;;;;5093644;28;20114;-86
2022/09/09 05:34:37;;;;;;;6.05;3.33;;;18.40;99.90;;;;;;5093062;28;20117;-86
2022/09/09 05:37:04;;;;;;;5.88;3.60;;;18.50;99.90;;;;;;5094432;28;20020;-87
2022/09/09 05:39:30;;;;;;;12.73;3.88;;;18.50;99.90;;;;;;5093191;28;20047;-86
2022/09/09 05:41:55;;;;;;;6.10;3.50;;;18.50;99.90;;;;;;5093240;28;20073;-87
2022/09/09 05:44:23;;;;;;;13.43;5.65;;;18.60;99.90;;;;;;5092877;28;20077;-87
2022/09/09 05:46:49;;;;;;;7.22;3.30;;;18.60;99.90;;;;;;5102008;28;20024;-88
2022/09/09 05:49:16;;;;;;;4.82;3.35;;;18.70;99.90;;;;;;5115046;28;20066;-87
2022/09/09 05:51:42;;;;;;;6.18;3.92;;;18.70;99.90;;;;;;5113486;28;20492;-88
2022/09/09 05:54:08;;;;;;;7.30;4.05;;;18.80;99.90;;;;;;5098357;28;20098;-88
2022/09/09 05:56:34;;;;;;;9.80;5.13;;;18.80;99.90;;;;;;5092975;28;20024;-87
2022/09/09 05:59:00;;;;;;;10.10;4.97;;;18.90;99.90;;;;;;5108541;28;20028;-89
2022/09/09 06:01:28;;;;;;;9.48;3.72;;;18.90;99.90;;;;;;5104575;28;20373;-87
2022/09/09 06:03:55;;;;;;;5.57;3.35;;;19.00;99.90;;;;;;5094295;28;20396;-87
2022/09/09 06:06:26;;;;;;;6.95;3.88;;;19.10;99.90;;;;;;5093393;28;20464;-87
2022/09/09 06:08:56;;;;;;;4.55;3.50;;;19.20;99.90;;;;;;5096490;28;20027;-87
2022/09/09 06:11:31;;;;;;;9.90;3.25;;;19.30;99.90;;;;;;5112830;28;20016;-89
2022/09/09 06:13:57;;;;;;;5.18;2.97;;;19.40;99.90;;;;;;5103026;28;20047;-89
2022/09/09 06:16:26;;;;;;;4.65;2.67;;;19.40;99.90;;;;;;5093540;28;20105;-88
2022/09/09 06:18:54;;;;;;;4.07;2.40;;;19.50;99.90;;;;;;5110470;28;20039;-85
2022/09/09 06:21:25;;;;;;;7.20;2.88;;;19.50;99.90;;;;;;5111116;28;20291;-88
2022/09/09 06:23:52;;;;;;;6.13;2.97;;;19.60;99.90;;;;;;5112631;28;20027;-88
2022/09/09 06:26:22;;;;;;;7.10;3.13;;;19.60;99.90;;;;;;5112238;28;20114;-87
2022/09/09 06:28:49;;;;;;;10.30;3.50;;;19.70;99.90;;;;;;5110292;28;20027;-88
2022/09/09 06:31:17;;;;;;;5.20;3.22;;;19.70;99.90;;;;;;5110856;28;20110;-88
2022/09/09 06:33:44;;;;;;;4.50;2.90;;;19.80;99.90;;;;;;5112047;28;20043;-86
2022/09/09 06:36:15;;;;;;;11.82;3.15;;;19.90;99.90;;;;;;5111516;28;20042;-87
2022/09/09 06:38:42;;;;;;;4.82;3.42;;;20.10;99.90;;;;;;5092959;28;20024;-88
2022/09/09 06:41:09;;;;;;;3.25;2.92;;;20.10;99.90;;;;;;5093200;28;20393;-88
2022/09/09 06:43:35;;;;;;;7.85;3.38;;;20.20;99.90;;;;;;5092336;28;20103;-88
2022/09/09 06:46:08;;;;;;;5.88;3.97;;;20.30;99.90;;;;;;5092333;28;20024;-88
2022/09/09 06:48:34;;;;;;;6.50;4.40;;;20.50;99.90;;;;;;5100853;28;20020;-88
2022/09/09 06:51:11;;;;;;;9.35;3.70;;;20.70;99.90;;;;;;5112762;28;20080;-88
2022/09/09 06:53:38;;;;;;;10.68;5.65;;;20.90;99.90;;;;;;5112221;28;20134;-88
2022/09/09 06:56:09;;;;;;;10.63;4.82;;;21.10;99.90;;;;;;5112856;28;20487;-88
2022/09/09 06:58:43;;;;;;;6.43;5.22;;;21.30;99.90;;;;;;5112754;28;20081;-88
2022/09/09 07:01:15;;;;;;;9.73;6.35;;;21.50;99.90;;;;;;5112406;28;20028;-88
2022/09/09 07:03:44;;;;;;;9.70;5.90;;;21.80;99.90;;;;;;5112094;28;20027;-87
2022/09/09 07:06:17;;;;;;;8.38;6.25;;;22.10;99.90;;;;;;5112549;28;20073;-87
2022/09/09 07:08:43;;;;;;;10.60;6.35;;;22.30;99.90;;;;;;5111839;28;20028;-87
2022/09/09 07:11:09;;;;;;;7.72;5.95;;;22.30;99.90;;;;;;5106991;28;20181;-87
2022/09/09 07:13:35;;;;;;;16.40;6.35;;;22.20;99.90;;;;;;5091518;28;20036;-87
2022/09/09 07:16:12;;;;;;;8.35;5.57;;;22.20;99.90;;;;;;5092335;28;20024;-87
2022/09/09 07:18:39;;;;;;;11.23;6.07;;;22.40;99.90;;;;;;5091163;28;20042;-87
2022/09/09 07:21:06;;;;;;;9.73;5.63;;;22.50;99.90;;;;;;5091097;28;20059;-87
2022/09/09 07:23:32;;;;;;;12.27;5.78;;;22.70;99.90;;;;;;5110296;28;20525;-87
2022/09/09 07:25:58;;;;;;;6.78;4.80;;;23.20;99.90;;;;;;5111816;28;20023;-88
2022/09/09 07:28:26;;;;;;;6.40;5.03;;;23.70;99.90;;;;;;5113124;28;20024;-87
2022/09/09 07:31:02;;;;;;;8.93;4.13;;;24.10;99.90;;;;;;5111689;28;20020;-87
2022/09/09 07:33:30;;;;;;;7.97;4.10;;;24.20;99.90;;;;;;5112875;28;20059;-87
2022/09/09 07:36:06;;;;;;;8.05;3.75;;;24.40;99.90;;;;;;5113636;28;20473;-86
2022/09/09 07:38:37;;;;;;;5.18;3.78;;;24.30;99.90;;;;;;5093989;28;20034;-86
2022/09/09 07:41:05;;;;;;;9.63;3.60;;;24.20;99.90;;;;;;5091985;28;20433;-86
2022/09/09 07:43:31;;;;;;;9.32;3.22;;;24.60;99.90;;;;;;5075242;28;20408;-87
2022/09/09 07:46:03;;;;;;;8.02;3.15;;;25.50;99.90;;;;;;5106280;28;20023;-87
2022/09/09 07:48:29;;;;;;;5.32;2.75;;;26.50;99.90;;;;;;5112043;28;20028;-87
2022/09/09 07:51:18;;;;;;;4.57;2.40;;;27.20;99.90;;;;;;5116572;28;20035;-87
2022/09/09 07:53:44;;;;;;;5.13;3.00;;;27.50;99.90;;;;;;5099068;28;20062;-87
2022/09/09 07:56:16;;;;;;;3.92;3.05;;;27.20;99.90;;;;;;5092238;28;20024;-87
2022/09/09 07:58:44;;;;;;;5.15;2.85;;;26.80;99.90;;;;;;5092438;28;20028;-86
2022/09/09 08:01:17;;;;;;;6.05;3.40;;;26.20;99.90;;;;;;5098337;28;20110;-87
2022/09/09 08:03:44;;;;;;;4.68;2.92;;;25.70;99.90;;;;;;5114763;28;20027;-87
2022/09/09 08:06:11;;;;;;;4.55;3.25;;;25.20;99.90;;;;;;5122185;28;20099;-87
2022/09/09 08:08:38;;;;;;;3.40;2.67;;;24.70;99.90;;;;;;5110506;28;20038;-86
2022/09/09 08:11:08;;;;;;;3.67;2.92;;;24.30;99.90;;;;;;5096777;28;20035;-88
2022/09/09 08:13:36;;;;;;;6.40;2.88;;;23.80;99.90;;;;;;5107628;28;20042;-87
2022/09/09 08:16:11;;;;;;;8.02;3.60;;;23.50;99.90;;;;;;5110911;28;20042;-86
2022/09/09 08:18:37;;;;;;;5.82;3.65;;;23.40;99.90;;;;;;5109738;28;20092;-86
2022/09/09 08:21:17;;;;;;;7.05;3.53;;;23.30;99.90;;;;;;5110953;28;20115;-86
2022/09/09 08:23:43;;;;;;;7.68;3.90;;;23.30;99.90;;;;;;5111372;28;20027;-86
2022/09/09 08:26:14;;;;;;;7.78;4.53;;;23.30;99.90;;;;;;5110670;28;20027;-87
2022/09/09 08:28:41;;;;;;;6.93;4.22;;;23.30;99.90;;;;;;5111004;28;20024;-86
2022/09/09 08:31:07;;;;;;;8.32;4.22;;;23.30;99.90;;;;;;5111854;28;20020;-86
2022/09/09 08:33:33;;;;;;;9.88;4.75;;;23.40;99.90;;;;;;5111742;28;20040;-86
2022/09/09 08:35:59;;;;;;;5.85;3.67;;;23.50;99.90;;;;;;5111570;28;20460;-87
2022/09/09 08:38:24;;;;;;;5.75;4.50;;;23.60;99.90;;;;;;5093523;28;20118;-87
2022/09/09 08:40:53;;;;;;;8.98;4.15;;;23.80;99.90;;;;;;5090598;28;20020;-86
2022/09/09 08:43:21;;;;;;;4.80;3.63;;;24.10;99.90;;;;;;5090191;28;20039;-87
2022/09/09 08:45:55;;;;;;;6.10;3.45;;;24.50;99.90;;;;;;5090682;28;20027;-87
2022/09/09 08:48:41;;;;;;;4.70;2.97;;;24.70;99.90;;;;;;5090025;28;20088;-87
2022/09/09 08:51:08;;;;;;;7.50;3.38;;;24.90;99.90;;;;;;5090307;28;20083;-87
2022/09/09 08:53:53;;;;;;;5.90;3.65;;;24.90;99.90;;;;;;5090423;28;20504;-87
2022/09/09 08:56:23;;;;;;;4.25;3.42;;;24.70;99.90;;;;;;5091281;28;20047;-87
2022/09/09 08:58:57;;;;;;;5.28;3.55;;;24.80;99.90;;;;;;5091805;28;20028;-88
2022/09/09 09:01:28;;;;;;;6.25;2.90;;;24.90;99.90;;;;;;5092329;28;20109;-87
2022/09/09 09:04:15;;;;;;;6.65;3.25;;;25.10;99.90;;;;;;5094546;28;20043;-85
2022/09/09 09:07:15;;;;;;;5.50;3.17;;;25.30;99.90;;;;;;5093148;28;20028;-87
2022/09/09 09:09:58;;;;;;;3.63;2.72;;;25.80;99.90;;;;;;5101256;28;20017;-88
2022/09/09 09:12:28;;;;;;;11.07;3.28;;;26.20;99.90;;;;;;5099719;28;20027;-87
2022/09/09 09:14:56;;;;;;;3.50;2.28;;;26.70;99.90;;;;;;5096546;28;20035;-86
2022/09/09 09:17:25;;;;;;;7.43;2.67;;;28.00;99.90;;;;;;5089671;28;20016;-87
2022/09/09 09:19:51;;;;;;;10.73;2.65;;;28.50;99.90;;;;;;5097303;28;20027;-87
2022/09/09 09:22:36;;;;;;;3.53;1.90;;;28.40;99.90;;;;;;5108626;28;20028;-87
2022/09/09 09:25:19;;;;;;;3.13;2.00;;;28.20;99.90;;;;;;5110799;28;20028;-87
2022/09/09 09:28:10;;;;;;;7.28;2.13;;;28.30;99.90;;;;;;5112106;28;20028;-86
2022/09/09 09:30:48;;;;;;;8.95;2.00;;;28.40;99.90;;;;;;5107295;28;20036;-86
2022/09/09 09:33:40;;;;;;;3.83;1.77;;;28.10;99.90;;;;;;5091197;28;20039;-87
2022/09/09 09:36:07;;;;;;;3.20;2.28;;;27.60;99.90;;;;;;5091519;28;20039;-87
2022/09/09 09:38:34;;;;;;;3.85;2.28;;;27.20;99.90;;;;;;5090782;28;20030;-85
2022/09/09 09:41:00;;;;;;;9.65;2.95;;;26.40;99.90;;;;;;5089429;28;20035;-87
2022/09/09 09:43:31;;;;;;;3.35;2.50;;;26.00;99.90;;;;;;5091411;28;20423;-86
2022/09/09 09:45:58;;;;;;;4.57;2.33;;;26.20;99.90;;;;;;5102879;28;20035;-87
2022/09/09 09:48:25;;;;;;;3.83;1.98;;;27.00;99.90;;;;;;5110313;28;20016;-87
2022/09/09 09:51:07;;;;;;;3.38;2.25;;;27.30;99.90;;;;;;5109969;28;20024;-86
2022/09/09 09:53:34;;;;;;;4.85;1.98;;;28.00;99.90;;;;;;5103654;28;20407;-86
2022/09/09 09:56:11;;;;;;;5.15;2.22;;;29.10;99.50;;;;;;5108932;28;20022;-87
2022/09/09 09:58:50;;;;;;;3.25;1.52;;;30.40;97.70;;;;;;5109681;28;20126;-85
2022/09/09 10:01:27;;;;;;;5.60;2.33;;;31.40;94.20;;;;;;5111732;28;20019;-84
2022/09/09 10:03:56;;;;;;;3.97;1.90;;;31.80;93.00;;;;;;5113258;28;20073;-86
2022/09/09 10:06:34;;;;;;;5.53;1.45;;;32.00;93.40;;;;;;5112591;28;20507;-86
2022/09/09 10:09:02;;;;;;;6.93;1.98;;;32.60;90.30;;;;;;5111789;28;20032;-86
2022/09/09 10:11:42;;;;;;;4.57;1.65;;;32.90;89.30;;;;;;5113025;28;20024;-86
2022/09/09 10:14:25;;;;;;;5.45;1.60;;;33.10;87.90;;;;;;5112927;28;20161;-87
2022/09/09 10:17:07;;;;;;;5.07;1.80;;;33.50;85.30;;;;;;5108812;28;20027;-86
2022/09/09 10:19:35;;;;;;;5.43;1.55;;;33.20;80.60;;;;;;5092465;28;20031;-86
2022/09/09 10:22:19;;;;;;;3.78;1.60;;;31.90;81.70;;;;;;5097886;28;20089;-86
2022/09/09 10:25:06;;;;;;;4.32;1.92;;;31.00;85.60;;;;;;5112851;28;20055;-88
2022/09/09 10:28:00;;;;;;;3.67;1.52;;;30.20;90.20;;;;;;5112302;28;20024;-87
2022/09/09 10:30:48;;;;;;;3.03;1.85;;;29.60;90.00;;;;;;5095071;28;20115;-87
2022/09/09 10:33:28;;;;;;;3.22;1.65;;;29.40;88.90;;;;;;5091474;28;20450;-87
2022/09/09 10:36:20;;;;;;;4.57;2.50;;;28.80;91.20;;;;;;5092131;28;20024;-88
2022/09/09 10:38:49;;;;;;;7.38;3.08;;;28.70;92.60;;;;;;5092280;28;20031;-87
2022/09/09 10:41:34;;;;;;;5.75;3.35;;;28.70;92.10;;;;;;5095184;28;20103;-87
2022/09/09 10:44:13;;;;;;;7.15;3.78;;;28.50;92.40;;;;;;5113917;28;20023;-88
2022/09/09 10:47:15;;;;;;;6.18;3.40;;;27.80;94.20;;;;;;5112194;28;20445;-88
2022/09/09 10:50:06;;;;;;;5.55;4.13;;;27.40;96.60;;;;;;5112559;28;20019;-88
2022/09/09 10:52:38;;;;;;;6.72;3.70;;;27.20;97.10;;;;;;5101257;28;20047;-88
2022/09/09 10:55:25;;;;;;;4.70;3.55;;;26.90;97.10;;;;;;5113406;28;20035;-88
2022/09/09 10:57:52;;;;;;;7.28;3.20;;;26.80;97.50;;;;;;5108840;28;20028;-85
2022/09/09 11:00:21;;;;;;;6.82;3.25;;;26.70;97.70;;;;;;5091679;28;20052;-87
2022/09/09 11:03:01;;;;;;;4.70;2.90;;;26.60;98.30;;;;;;5091857;28;20042;-87
2022/09/09 11:05:46;;;;;;;5.60;3.28;;;26.70;98.60;;;;;;5101130;28;20061;-88
2022/09/09 11:08:19;;;;;;;4.75;3.13;;;26.80;99.30;;;;;;5112005;28;20039;-87
2022/09/09 11:11:10;;;;;;;4.97;3.05;;;26.60;99.20;;;;;;5112257;28;20094;-88
2022/09/09 11:13:51;;;;;;;6.90;4.35;;;26.30;99.60;;;;;;5101786;28;20500;-88
2022/09/09 11:16:38;;;;;;;6.30;3.47;;;26.20;99.90;;;;;;5091465;28;20073;-88
2022/09/09 11:19:13;;;;;;;4.43;3.58;;;26.20;99.90;;;;;;5091330;28;20028;-88
2022/09/09 11:21:47;;;;;;;3.65;3.00;;;26.30;99.90;;;;;;5091409;28;20028;-88
2022/09/09 11:24:23;;;;;;;3.80;2.80;;;26.40;99.90;;;;;;5091690;28;20028;-86
2022/09/09 11:27:06;;;;;;;4.63;3.40;;;26.40;99.90;;;;;;5091583;28;20028;-88
2022/09/09 11:30:09;;;;;;;4.05;3.65;;;26.30;99.90;;;;;;5101495;28;20244;-87
2022/09/09 11:33:03;;;;;;;8.43;4.38;;;26.50;99.90;;;;;;5111273;28;20032;-86
2022/09/09 11:36:00;;;;;;;6.93;4.15;;;26.50;99.90;;;;;;5110710;28;20237;-86
2022/09/09 11:38:28;;;;;;;6.88;3.70;;;26.70;99.70;;;;;;5093157;28;20028;-87
2022/09/09 11:41:00;;;;;;;4.82;3.50;;;26.80;99.20;;;;;;5090229;28;20063;-86
2022/09/09 11:43:39;;;;;;;3.97;3.53;;;26.80;99.10;;;;;;5090502;28;20495;-85
2022/09/09 11:46:07;;;;;;;4.40;3.35;;;26.80;99.60;;;;;;5110281;28;20017;-87
2022/09/09 11:48:35;;;;;;;6.88;3.70;;;26.90;99.70;;;;;;5113596;28;20026;-87
2022/09/09 11:51:07;;;;;;;5.40;3.95;;;26.90;99.70;;;;;;5104289;28;20028;-86
2022/09/09 11:53:36;;;;;;;6.40;3.75;;;26.90;99.80;;;;;;5091680;28;20169;-87
2022/09/09 11:56:12;;;;;;;8.93;4.38;;;27.00;99.70;;;;;;5090780;28;20058;-87
2022/09/09 11:58:45;;;;;;;4.95;2.92;;;27.00;98.60;;;;;;5090368;28;20030;-86
2022/09/09 12:01:34;;;;;;;5.18;4.10;;;26.90;97.60;;;;;;5090423;28;20032;-86
2022/09/09 12:04:26;;;;;;;5.25;4.00;;;26.80;98.10;;;;;;5089871;28;20028;-87
2022/09/09 12:07:09;;;;;;;5.90;4.45;;;26.80;98.50;;;;;;5090531;28;20024;-87
2022/09/09 12:09:52;;;;;;;7.15;4.00;;;26.90;98.10;;;;;;5091191;28;20035;-87
2022/09/09 12:12:26;;;;;;;6.13;4.03;;;26.90;97.30;;;;;;5091366;28;20039;-86
2022/09/09 12:14:56;;;;;;;5.78;4.25;;;26.90;97.80;;;;;;5090247;28;20024;-87
2022/09/09 12:17:24;;;;;;;5.80;4.60;;;27.00;98.20;;;;;;5089915;28;20096;-87
2022/09/09 12:20:24;;;;;;;4.68;4.20;;;27.00;96.70;;;;;;5091823;28;20024;-87
2022/09/09 12:22:56;;;;;;;5.80;4.38;;;26.90;97.30;;;;;;5091975;28;20469;-87
2022/09/09 12:25:30;;;;;;;6.22;4.22;;;26.90;97.60;;;;;;5110136;28;20027;-87
2022/09/09 12:28:04;;;;;;;4.80;4.03;;;27.00;95.80;;;;;;5109957;28;20065;-87
2022/09/09 12:30:54;;;;;;;10.60;4.57;;;26.80;96.10;;;;;;5107909;28;20026;-86
2022/09/09 12:33:21;;;;;;;6.40;4.68;;;26.80;97.30;;;;;;5096201;28;20130;-85
2022/09/09 12:35:57;;;;;;;22.13;5.40;;;26.80;97.20;;;;;;5108685;28;20122;-84
2022/09/09 12:38:35;;;;;;;11.60;4.63;;;26.90;98.70;;;;;;5109156;28;20427;-84
2022/09/09 12:41:01;;;;;;;8.15;4.75;;;27.00;98.50;;;;;;5109010;28;20427;-85
2022/09/09 12:43:28;;;;;;;9.50;5.45;;;27.20;98.10;;;;;;5108778;28;20087;-86
2022/09/09 12:46:00;;;;;;;11.88;5.55;;;27.20;97.70;;;;;;5108956;28;20027;-85
2022/09/09 12:48:36;;;;;;;8.70;6.38;;;27.30;97.60;;;;;;5108462;28;20303;-86
2022/09/09 12:51:05;;;;;;;7.07;5.95;;;27.30;97.30;;;;;;5108679;28;20028;-85
2022/09/09 12:53:36;;;;;;;5.85;4.57;;;27.30;97.50;;;;;;5098777;28;20496;-85
2022/09/09 12:56:07;;;;;;;11.18;5.65;;;27.40;97.40;;;;;;5089862;28;20162;-84
2022/09/09 12:58:34;;;;;;;7.88;5.22;;;27.40;97.00;;;;;;5088535;28;20510;-85
2022/09/09 13:01:03;;;;;;;7.22;5.80;;;27.40;97.30;;;;;;5088088;28;20028;-84
2022/09/09 13:03:28;;;;;;;9.00;5.90;;;27.50;97.30;;;;;;5087611;28;20407;-85
2022/09/09 13:06:00;;;;;;;5.28;4.60;;;27.60;96.10;;;;;;5087775;28;20020;-86
2022/09/09 13:08:27;;;;;;;8.82;5.80;;;27.60;95.80;;;;;;5088559;28;20020;-85
2022/09/09 13:10:56;;;;;;;10.95;6.10;;;27.60;95.80;;;;;;5087810;28;20036;-85
2022/09/09 13:13:29;;;;;;;10.70;6.45;;;27.60;96.30;;;;;;5096446;28;20035;-84